Anthony, New Mexico
Current Conditions -  °F | °C
As of 6:58 AM on Friday 19 Dec 2014 (Local Time) from KBIF Reporting Station
Scattered Clouds Scattered Clouds  
Wind Chill: 29°   Ceiling: Unl
Heat Index: 34°   Visibility: 7mi
Dew Point: 33°   Wind: 6mph
Humidity: 97%   Direction: 260°W
Pressure: 30.19"   Gusts: NA
Location:  32°N, 106.6°W
Report Text: KBIF 191358Z 26005KT 7SM SCT025 SCT080 01/01 A3019 RMK AO2A SLP213 T00100006 $
Loading
Personal Weather Stations






























Interactive Weather Map New forecast layout! Learn more

10-Day Weather Forecast

Advertisements
Track Severe Weather on mobile